Time;durP1;ratioP1;P1;durP2;ratioP2;P2;SDS_P1;SDS_P2;PMS_P1;PMS_P2;Temp;Humidity;BMP_temperature;BMP_pressure;BME280_temperature;BME280_humidity;BME280_pressure;Samples;Min_cycle;Max_cycle;Signal;HPM_P1;HPM_P2
2024/02/13 05:00:36;;;;;;;2.53;2.17;;;4.00;97.30;;;;;;6092544;23;20406;-88
2024/02/13 05:03:24;;;;;;;1.30;1.20;;;4.00;97.30;;;;;;5025817;28;20414;-88
2024/02/13 05:08:34;;;;;;;4.23;2.40;;;3.90;97.30;;;;;;5046049;28;20953;-87
2024/02/13 05:11:02;;;;;;;5.80;1.53;;;3.90;97.30;;;;;;5022586;28;20440;-88
2024/02/13 05:13:31;;;;;;;3.10;1.10;;;3.90;97.30;;;;;;5025995;28;20183;-89
2024/02/13 05:15:58;;;;;;;1.50;1.40;;;3.90;97.30;;;;;;4996879;28;20419;-87
2024/02/13 05:18:23;;;;;;;1.60;1.50;;;3.90;97.30;;;;;;5008368;28;20419;-88
2024/02/13 05:20:50;;;;;;;6.47;3.40;;;3.90;97.30;;;;;;5005770;28;20440;-89
2024/02/13 05:23:15;;;;;;;1.10;1.00;;;3.90;97.30;;;;;;5006429;28;20271;-88
2024/02/13 05:25:41;;;;;;;2.70;2.27;;;3.80;97.30;;;;;;5004932;28;20562;-88
2024/02/13 05:28:07;;;;;;;16.80;3.60;;;3.80;97.30;;;;;;5004262;28;20504;-89
2024/02/13 05:30:32;;;;;;;2.63;1.50;;;3.80;97.30;;;;;;5005609;28;20173;-88
2024/02/13 05:33:01;;;;;;;1.13;1.03;;;3.70;97.30;;;;;;5008946;28;20176;-89
2024/02/13 05:35:27;;;;;;;6.90;2.80;;;3.70;97.30;;;;;;5009286;28;20275;-87
2024/02/13 05:37:52;;;;;;;1.20;1.10;;;3.70;97.30;;;;;;5026510;28;21157;-87
2024/02/13 05:40:18;;;;;;;3.80;2.63;;;3.60;97.30;;;;;;5009569;28;20196;-87
2024/02/13 05:42:44;;;;;;;2.30;1.43;;;3.60;97.30;;;;;;5015753;28;20250;-88
2024/02/13 05:45:10;;;;;;;2.80;2.60;;;3.60;97.30;;;;;;5005486;28;20191;-90
2024/02/13 05:47:37;;;;;;;2.97;2.20;;;3.50;97.30;;;;;;5022068;28;20453;-88
2024/02/13 05:50:03;;;;;;;2.67;1.60;;;3.50;97.30;;;;;;5016975;28;20431;-87
2024/02/13 05:52:30;;;;;;;2.60;2.13;;;3.50;97.30;;;;;;5014618;28;20439;-87
2024/02/13 05:54:56;;;;;;;2.43;2.23;;;3.50;97.30;;;;;;5018150;28;20430;-87
2024/02/13 05:57:25;;;;;;;2.87;2.67;;;3.50;97.30;;;;;;5018025;28;20426;-87
2024/02/13 05:59:53;;;;;;;2.70;1.93;;;3.40;97.30;;;;;;5015189;28;20423;-88
2024/02/13 06:02:19;;;;;;;1.13;1.03;;;3.40;97.30;;;;;;5008463;28;20846;-87
2024/02/13 06:04:45;;;;;;;1.00;0.90;;;3.40;97.30;;;;;;5018626;28;20431;-88
2024/02/13 06:07:13;;;;;;;1.10;1.00;;;3.40;97.30;;;;;;5018472;28;20208;-86
2024/02/13 06:09:39;;;;;;;1.63;1.30;;;3.40;97.30;;;;;;5019662;28;20192;-86
2024/02/13 06:12:06;;;;;;;2.93;2.73;;;3.40;97.30;;;;;;5013367;28;20454;-87
2024/02/13 06:14:33;;;;;;;1.77;1.73;;;3.40;97.30;;;;;;5018335;28;20548;-89
2024/02/13 06:16:58;;;;;;;1.67;1.57;;;3.30;97.30;;;;;;5014495;28;20980;-86
2024/02/13 06:19:24;;;;;;;2.10;1.67;;;3.30;97.30;;;;;;5019211;28;20581;-87
2024/02/13 06:21:51;;;;;;;3.40;1.77;;;3.30;97.30;;;;;;5017684;28;20253;-88
2024/02/13 06:24:16;;;;;;;1.93;1.83;;;3.30;97.30;;;;;;5008455;28;20474;-89
2024/02/13 06:26:43;;;;;;;1.50;1.40;;;3.30;97.30;;;;;;5009835;28;20952;-87
2024/02/13 06:29:08;;;;;;;2.00;1.90;;;3.30;97.30;;;;;;5015423;28;20262;-87
2024/02/13 06:31:34;;;;;;;1.57;1.50;;;3.30;97.30;;;;;;5018274;28;20490;-88
2024/02/13 06:34:00;;;;;;;1.63;1.53;;;3.30;97.30;;;;;;5013099;28;20179;-87
2024/02/13 06:36:26;;;;;;;1.50;1.40;;;3.30;97.30;;;;;;5016520;28;20184;-88
2024/02/13 06:38:52;;;;;;;2.77;1.33;;;3.20;97.30;;;;;;5014516;28;20613;-88
2024/02/13 06:41:18;;;;;;;3.43;2.07;;;3.30;97.30;;;;;;5005290;28;20444;-88
2024/02/13 06:43:44;;;;;;;5.33;1.40;;;3.30;97.30;;;;;;5032640;28;20944;-88
2024/02/13 06:46:10;;;;;;;2.00;1.90;;;3.20;97.30;;;;;;5018185;28;20196;-88
2024/02/13 06:48:35;;;;;;;1.20;1.10;;;3.20;97.30;;;;;;5011012;28;20450;-88
2024/02/13 06:51:03;;;;;;;7.97;2.07;;;3.20;97.30;;;;;;5002728;28;20287;-88
2024/02/13 06:53:29;;;;;;;2.27;2.07;;;3.30;97.30;;;;;;5015824;28;20207;-88
2024/02/13 06:55:54;;;;;;;1.40;1.30;;;3.20;97.30;;;;;;5015980;28;20469;-88
2024/02/13 06:58:20;;;;;;;1.87;1.77;;;3.30;97.30;;;;;;5007727;28;20200;-88
2024/02/13 07:00:47;;;;;;;2.23;2.03;;;3.30;97.30;;;;;;5015560;28;20223;-88
2024/02/13 07:03:12;;;;;;;1.93;1.70;;;3.30;97.30;;;;;;5007290;28;20190;-87
2024/02/13 07:05:38;;;;;;;3.97;3.77;;;3.30;97.30;;;;;;5007504;28;20550;-88
2024/02/13 07:08:04;;;;;;;1.40;1.33;;;3.40;97.30;;;;;;5010607;28;20682;-88
2024/02/13 07:10:29;;;;;;;3.53;2.97;;;3.40;97.30;;;;;;5011889;28;20177;-88
2024/02/13 07:12:56;;;;;;;2.53;1.67;;;3.40;97.30;;;;;;5015733;28;20422;-89
2024/02/13 07:15:22;;;;;;;3.27;3.07;;;3.50;97.30;;;;;;5007115;28;20181;-88
2024/02/13 07:17:49;;;;;;;2.03;1.93;;;3.50;97.30;;;;;;5007904;28;20949;-88
2024/02/13 07:20:14;;;;;;;2.27;2.07;;;3.60;97.30;;;;;;5005991;28;20560;-88
2024/02/13 07:22:43;;;;;;;1.53;1.43;;;3.60;97.30;;;;;;5015311;28;20446;-89
2024/02/13 07:25:09;;;;;;;2.23;2.03;;;3.70;97.30;;;;;;5006446;28;20177;-88
2024/02/13 07:27:42;;;;;;;1.70;1.60;;;3.80;97.30;;;;;;5006981;28;20428;-88
2024/02/13 07:30:11;;;;;;;2.53;1.80;;;3.90;97.30;;;;;;5010166;28;20423;-88
2024/02/13 07:32:37;;;;;;;1.43;1.33;;;3.90;97.30;;;;;;5010442;28;20448;-88
2024/02/13 07:35:04;;;;;;;2.93;2.80;;;4.00;97.30;;;;;;5008940;28;20502;-88
2024/02/13 07:37:31;;;;;;;1.83;1.73;;;4.10;97.30;;;;;;5009785;28;20393;-88
2024/02/13 07:39:57;;;;;;;2.33;2.13;;;4.20;97.30;;;;;;5003361;28;20940;-88
2024/02/13 07:42:25;;;;;;;0.90;0.80;;;4.30;97.30;;;;;;5010193;28;20446;-87
2024/02/13 07:44:51;;;;;;;5.87;2.90;;;4.40;97.30;;;;;;5005673;28;20416;-88
2024/02/13 07:47:17;;;;;;;1.90;1.80;;;4.50;97.30;;;;;;5017355;28;20498;-88
2024/02/13 07:49:43;;;;;;;1.77;1.70;;;4.60;97.30;;;;;;5017541;28;20508;-89
2024/02/13 07:52:12;;;;;;;1.53;1.43;;;4.60;97.30;;;;;;5017249;28;21071;-88
2024/02/13 07:54:39;;;;;;;1.80;1.70;;;4.70;97.30;;;;;;5017019;28;20177;-90
2024/02/13 07:57:04;;;;;;;1.30;1.20;;;4.80;97.30;;;;;;5011330;28;20423;-87
2024/02/13 07:59:30;;;;;;;5.33;1.90;;;4.90;97.30;;;;;;5017438;28;20970;-87
2024/02/13 08:01:56;;;;;;;2.13;1.97;;;5.00;97.30;;;;;;5016723;28;20228;-88
2024/02/13 08:04:22;;;;;;;1.83;1.73;;;5.10;97.30;;;;;;5016766;28;20177;-88
2024/02/13 08:06:47;;;;;;;1.47;1.37;;;5.10;97.30;;;;;;5014613;28;20498;-89
2024/02/13 08:09:14;;;;;;;2.43;2.23;;;5.20;97.30;;;;;;5011136;28;20172;-89
2024/02/13 08:11:41;;;;;;;3.13;2.70;;;5.30;97.30;;;;;;5014495;28;20557;-87
2024/02/13 08:14:09;;;;;;;3.00;2.00;;;5.30;97.30;;;;;;5016362;28;20837;-87
2024/02/13 08:16:35;;;;;;;2.00;1.40;;;5.30;97.30;;;;;;5016834;28;20450;-87
2024/02/13 08:19:00;;;;;;;1.47;1.37;;;5.30;97.30;;;;;;5014708;28;20937;-84
2024/02/13 08:21:28;;;;;;;2.87;1.93;;;5.40;97.30;;;;;;5019596;28;20205;-87
2024/02/13 08:23:54;;;;;;;2.63;2.43;;;5.50;97.30;;;;;;5020886;28;20269;-88
2024/02/13 08:26:19;;;;;;;3.97;2.40;;;5.60;97.30;;;;;;5018068;28;20448;-89
2024/02/13 08:28:45;;;;;;;2.00;1.93;;;5.60;97.30;;;;;;5011646;28;20707;-90
2024/02/13 08:31:10;;;;;;;2.03;1.90;;;5.80;97.30;;;;;;5024109;28;20197;-88
2024/02/13 08:33:37;;;;;;;6.23;2.43;;;5.90;97.30;;;;;;5015633;28;20271;-87
2024/02/13 08:36:03;;;;;;;1.80;1.70;;;5.90;97.30;;;;;;5014046;28;20212;-88
2024/02/13 08:38:31;;;;;;;4.00;1.60;;;6.00;97.30;;;;;;5009013;28;20423;-88
2024/02/13 08:40:57;;;;;;;2.70;2.40;;;6.00;97.30;;;;;;5012988;28;20208;-87
2024/02/13 08:43:22;;;;;;;1.33;1.30;;;6.00;97.30;;;;;;5024470;28;20424;-88
2024/02/13 08:45:48;;;;;;;1.70;1.63;;;6.10;97.30;;;;;;5006434;28;20211;-88
2024/02/13 08:48:14;;;;;;;3.43;2.83;;;6.10;97.30;;;;;;5014505;28;20681;-87
2024/02/13 08:50:41;;;;;;;1.37;1.27;;;6.10;97.30;;;;;;5011019;28;20197;-87
2024/02/13 08:53:06;;;;;;;1.43;1.33;;;6.10;97.30;;;;;;5016161;28;20419;-87
2024/02/13 08:55:32;;;;;;;4.20;3.37;;;6.20;97.30;;;;;;5015116;28;20434;-85
2024/02/13 08:57:58;;;;;;;2.40;2.20;;;6.30;97.30;;;;;;5015973;28;20192;-87
2024/02/13 09:00:26;;;;;;;3.03;1.67;;;6.30;97.30;;;;;;5015804;28;20238;-87
2024/02/13 09:02:51;;;;;;;2.27;2.07;;;6.40;97.30;;;;;;5016264;28;20911;-88
2024/02/13 09:05:19;;;;;;;3.17;1.50;;;6.50;97.30;;;;;;5015508;28;20438;-89
2024/02/13 09:07:46;;;;;;;2.90;2.20;;;6.50;97.30;;;;;;5015153;28;20278;-90
2024/02/13 09:10:12;;;;;;;2.53;1.87;;;6.60;97.30;;;;;;5014547;28;20789;-87
2024/02/13 09:12:45;;;;;;;3.70;2.00;;;6.70;97.30;;;;;;5015697;28;20201;-87
2024/02/13 09:15:12;;;;;;;1.00;0.90;;;6.90;97.30;;;;;;5015539;28;20825;-88
2024/02/13 09:17:42;;;;;;;1.17;1.10;;;6.80;97.30;;;;;;5001119;28;20424;-88
2024/02/13 09:20:13;;;;;;;3.37;3.23;;;6.70;97.30;;;;;;5005500;28;20556;-88
2024/02/13 09:22:45;;;;;;;2.23;1.93;;;6.70;97.30;;;;;;5014137;28;20442;-87
2024/02/13 09:25:12;;;;;;;3.00;2.80;;;6.80;97.30;;;;;;5013570;28;20441;-90
2024/02/13 09:27:40;;;;;;;1.00;0.90;;;6.90;97.30;;;;;;5013781;28;20564;-88
2024/02/13 09:30:07;;;;;;;3.17;2.97;;;6.90;97.30;;;;;;5013721;28;20439;-88
2024/02/13 09:32:36;;;;;;;3.10;2.27;;;7.10;97.30;;;;;;5013377;28;20443;-88
2024/02/13 09:35:03;;;;;;;1.70;1.60;;;7.10;97.30;;;;;;5012786;28;20434;-87
2024/02/13 09:37:31;;;;;;;1.93;1.53;;;7.10;97.30;;;;;;5010216;28;20872;-89
2024/02/13 09:39:57;;;;;;;2.70;1.83;;;7.10;97.30;;;;;;5005951;28;20424;-88
2024/02/13 09:42:24;;;;;;;4.50;3.27;;;7.30;97.30;;;;;;5009697;28;20443;-88
2024/02/13 09:44:52;;;;;;;2.30;2.20;;;7.50;97.30;;;;;;5001951;28;20216;-88
2024/02/13 09:47:19;;;;;;;2.60;2.40;;;7.60;97.30;;;;;;5020961;28;20473;-87
2024/02/13 09:49:46;;;;;;;5.40;3.33;;;7.60;97.30;;;;;;5013213;28;20525;-89
2024/02/13 09:52:13;;;;;;;4.73;1.63;;;7.40;97.30;;;;;;5003859;28;20522;-87
2024/02/13 09:54:42;;;;;;;2.10;1.57;;;7.40;97.30;;;;;;5010277;28;20968;-90
2024/02/13 09:57:10;;;;;;;1.30;1.20;;;7.50;97.30;;;;;;5012611;28;20438;-88
2024/02/13 09:59:37;;;;;;;2.00;1.90;;;7.60;97.30;;;;;;5006970;28;20952;-88
2024/02/13 10:02:05;;;;;;;2.00;1.80;;;7.50;97.30;;;;;;5010488;28;20900;-91
2024/02/13 10:04:31;;;;;;;2.40;2.03;;;7.60;97.30;;;;;;5008234;28;20456;-90
2024/02/13 10:07:00;;;;;;;1.80;1.70;;;7.70;97.30;;;;;;5001856;28;20495;-91
2024/02/13 10:09:29;;;;;;;3.07;2.77;;;7.80;97.30;;;;;;5005740;28;20279;-88
2024/02/13 10:11:55;;;;;;;2.27;1.97;;;7.90;97.30;;;;;;5028248;28;20447;-89
2024/02/13 10:14:21;;;;;;;3.03;2.83;;;8.00;97.30;;;;;;5010623;28;20420;-90
2024/02/13 10:16:50;;;;;;;4.43;2.60;;;8.00;97.30;;;;;;5010809;28;20195;-88
2024/02/13 10:19:22;;;;;;;4.50;3.03;;;8.10;97.30;;;;;;5023123;28;20433;-90
2024/02/13 10:21:51;;;;;;;5.63;4.90;;;8.00;97.30;;;;;;5032034;23;20827;-74
2024/02/13 10:24:17;;;;;;;2.80;2.60;;;8.10;97.30;;;;;;5048162;28;20502;-72
2024/02/13 10:26:42;;;;;;;5.17;2.33;;;8.30;97.30;;;;;;5028244;28;20553;-73
2024/02/13 10:29:08;;;;;;;1.83;1.63;;;8.30;97.30;;;;;;5033162;28;20275;-73
2024/02/13 10:31:35;;;;;;;3.03;2.90;;;8.40;97.30;;;;;;5050930;28;20715;-71
2024/02/13 10:34:11;;;;;;;1.30;1.20;;;8.30;97.30;;;;;;5032859;28;20997;-70
2024/02/13 10:36:42;;;;;;;1.40;1.30;;;8.20;97.30;;;;;;5045600;28;20424;-69
2024/02/13 10:39:11;;;;;;;2.93;2.73;;;8.20;97.30;;;;;;5049606;28;20932;-71
2024/02/13 10:41:41;;;;;;;2.33;2.13;;;8.30;97.30;;;;;;5039702;28;20674;-71
2024/02/13 10:44:13;;;;;;;2.90;2.63;;;8.40;97.30;;;;;;5049448;28;20418;-71
2024/02/13 10:46:40;;;;;;;2.93;2.77;;;8.60;97.30;;;;;;5037157;28;20466;-69
2024/02/13 10:49:29;;;;;;;2.93;2.53;;;8.60;97.30;;;;;;5040568;28;20427;-71
2024/02/13 10:51:55;;;;;;;2.53;1.83;;;8.80;97.30;;;;;;5032212;28;21132;-70
2024/02/13 10:54:24;;;;;;;2.57;1.90;;;8.60;97.30;;;;;;5029346;28;20426;-74
2024/02/13 10:56:52;;;;;;;2.80;2.60;;;8.50;97.30;;;;;;5039380;28;20411;-69
2024/02/13 10:59:21;;;;;;;3.33;2.67;;;8.30;97.30;;;;;;5041356;28;20453;-74
2024/02/13 11:01:48;;;;;;;1.90;1.80;;;8.30;97.30;;;;;;5035382;28;20692;-69
2024/02/13 11:04:15;;;;;;;1.57;1.07;;;8.60;97.30;;;;;;5046081;28;20484;-72
2024/02/13 11:06:41;;;;;;;31.43;5.10;;;8.70;97.30;;;;;;5019006;28;20458;-71
2024/02/13 11:09:12;;;;;;;3.80;2.20;;;8.90;97.30;;;;;;5024793;28;20483;-72
2024/02/13 11:11:41;;;;;;;6.30;2.33;;;8.80;97.30;;;;;;5018973;28;20251;-69
2024/02/13 11:14:23;;;;;;;4.60;4.10;;;8.70;97.30;;;;;;5039076;28;20415;-72
2024/02/13 11:17:03;;;;;;;2.63;1.87;;;8.90;97.30;;;;;;5032062;28;20426;-75
2024/02/13 11:19:38;;;;;;;7.50;3.27;;;9.30;97.30;;;;;;5016840;28;20430;-71
2024/02/13 11:22:08;;;;;;;1.40;1.30;;;9.30;97.30;;;;;;5049402;28;20473;-70
2024/02/13 11:24:40;;;;;;;2.80;2.40;;;9.50;97.30;;;;;;5032438;28;20434;-71
2024/02/13 11:27:06;;;;;;;2.33;1.60;;;9.60;97.30;;;;;;5031695;28;20888;-76
2024/02/13 11:29:32;;;;;;;6.00;1.33;;;9.60;96.70;;;;;;5042822;28;20618;-71
2024/02/13 11:31:58;;;;;;;4.30;2.67;;;9.70;96.40;;;;;;5049896;28;20253;-73
2024/02/13 11:34:42;;;;;;;1.77;1.67;;;9.80;96.40;;;;;;5029371;28;20419;-72
2024/02/13 11:37:19;;;;;;;3.43;2.50;;;9.50;95.20;;;;;;5029902;28;20510;-71
2024/02/13 11:39:48;;;;;;;7.13;1.80;;;9.30;95.70;;;;;;5050200;28;20486;-72
2024/02/13 11:42:18;;;;;;;2.77;2.33;;;9.20;96.20;;;;;;5031616;28;20461;-71
2024/02/13 11:44:44;;;;;;;1.40;1.20;;;9.20;96.20;;;;;;5032216;28;20422;-70
2024/02/13 11:47:10;;;;;;;4.77;3.03;;;9.20;96.50;;;;;;5031661;28;20576;-70
2024/02/13 11:49:36;;;;;;;1.60;1.43;;;9.20;96.70;;;;;;5031804;28;20513;-71
2024/02/13 11:52:02;;;;;;;3.87;2.13;;;9.50;96.50;;;;;;5031663;28;20195;-71
2024/02/13 11:54:32;;;;;;;1.77;1.67;;;9.70;95.80;;;;;;5032592;28;20432;-70
2024/02/13 11:56:58;;;;;;;9.43;2.30;;;9.70;96.30;;;;;;5032233;28;20419;-70
2024/02/13 11:59:24;;;;;;;3.40;2.40;;;9.70;95.80;;;;;;5031991;28;20429;-71
2024/02/13 12:01:52;;;;;;;1.43;1.37;;;9.70;95.40;;;;;;5031845;28;20447;-70
2024/02/13 12:04:19;;;;;;;2.30;1.90;;;9.80;95.00;;;;;;5031886;28;20680;-72
2024/02/13 12:06:45;;;;;;;2.13;1.90;;;9.90;94.20;;;;;;5031768;28;20511;-72
2024/02/13 12:09:15;;;;;;;1.30;1.20;;;10.00;92.40;;;;;;5031542;28;20487;-70
2024/02/13 12:11:41;;;;;;;2.27;1.43;;;10.00;91.80;;;;;;5031694;28;20801;-73
2024/02/13 12:14:07;;;;;;;1.50;1.40;;;10.10;91.00;;;;;;5042680;28;20433;-72
2024/02/13 12:16:33;;;;;;;0.90;0.80;;;10.20;91.10;;;;;;5034552;28;20410;-72
2024/02/13 12:19:03;;;;;;;5.03;2.30;;;10.20;90.10;;;;;;5037318;28;20427;-71
2024/02/13 12:21:29;;;;;;;1.57;1.47;;;10.10;90.20;;;;;;5021260;28;20223;-70
2024/02/13 12:24:01;;;;;;;1.40;1.30;;;9.90;90.50;;;;;;5042602;28;20566;-71
2024/02/13 12:26:28;;;;;;;2.50;1.70;;;9.70;91.80;;;;;;5029957;28;21032;-69
2024/02/13 12:28:57;;;;;;;3.93;1.33;;;10.00;92.70;;;;;;5053690;28;20413;-71
2024/02/13 12:31:23;;;;;;;2.97;2.03;;;10.30;91.40;;;;;;5061739;28;20439;-70
2024/02/13 12:34:05;;;;;;;2.50;2.10;;;10.40;90.90;;;;;;5017669;28;20442;-69
2024/02/13 12:36:31;;;;;;;1.90;1.80;;;10.40;90.90;;;;;;5032370;28;20933;-70
2024/02/13 12:39:25;;;;;;;1.27;1.13;;;10.60;90.90;;;;;;5029944;28;20976;-69
2024/02/13 12:41:51;;;;;;;1.77;1.70;;;10.50;90.40;;;;;;5038776;28;20447;-70
2024/02/13 12:44:23;;;;;;;1.77;1.67;;;10.20;91.00;;;;;;5033532;28;20433;-71
2024/02/13 12:46:51;;;;;;;2.13;1.97;;;10.10;91.90;;;;;;5042933;28;20454;-72
2024/02/13 12:49:19;;;;;;;3.73;2.20;;;10.10;92.50;;;;;;5039872;28;20458;-71
2024/02/13 12:51:45;;;;;;;1.20;1.10;;;10.10;91.70;;;;;;5030217;28;20481;-68
2024/02/13 12:54:11;;;;;;;2.53;1.60;;;9.60;93.30;;;;;;5035188;28;20415;-69
2024/02/13 12:56:40;;;;;;;8.47;2.50;;;9.50;94.10;;;;;;5019567;28;20799;-69
2024/02/13 12:59:12;;;;;;;3.03;1.90;;;9.20;93.80;;;;;;5044266;28;20865;-73
2024/02/13 13:01:45;;;;;;;2.87;2.00;;;9.00;94.30;;;;;;5041383;23;20522;-87
2024/02/13 13:04:15;;;;;;;2.80;2.60;;;9.10;95.20;;;;;;5028645;28;20416;-85
2024/02/13 13:06:44;;;;;;;4.10;2.30;;;9.50;94.90;;;;;;5023610;28;20462;-87
2024/02/13 13:09:10;;;;;;;2.63;2.03;;;9.70;94.20;;;;;;5029077;28;20477;-84
2024/02/13 13:11:36;;;;;;;1.27;1.17;;;9.70;94.20;;;;;;5026366;28;20439;-86
2024/02/13 13:14:02;;;;;;;1.63;1.00;;;10.00;93.20;;;;;;5029588;28;20431;-86
2024/02/13 13:16:30;;;;;;;3.03;1.53;;;9.90;92.50;;;;;;5029525;28;20427;-87
2024/02/13 13:18:59;;;;;;;1.13;1.03;;;9.80;92.50;;;;;;5030593;28;20184;-87
2024/02/13 13:21:25;;;;;;;1.77;1.67;;;9.30;93.30;;;;;;5029251;28;20442;-88
2024/02/13 13:23:53;;;;;;;1.27;1.23;;;9.10;93.60;;;;;;5029615;28;20423;-87
2024/02/13 13:26:32;;;;;;;1.47;1.37;;;9.30;93.40;;;;;;5029238;28;20536;-88
2024/02/13 13:29:04;;;;;;;2.03;1.90;;;9.90;92.70;;;;;;5030527;28;20606;-87
2024/02/13 13:31:42;;;;;;;6.20;1.00;;;10.80;91.50;;;;;;5029348;28;20709;-88
2024/02/13 13:34:09;;;;;;;7.87;1.73;;;11.40;89.80;;;;;;5029504;28;20976;-87
2024/02/13 13:36:35;;;;;;;1.57;1.27;;;11.10;88.00;;;;;;5029328;28;20419;-88
2024/02/13 13:39:10;;;;;;;1.30;1.20;;;11.00;89.00;;;;;;5028501;28;20473;-88
2024/02/13 13:41:39;;;;;;;3.43;2.40;;;11.00;89.30;;;;;;5028795;28;20482;-89
2024/02/13 13:44:05;;;;;;;1.30;1.10;;;11.10;88.70;;;;;;5029432;28;20446;-87
2024/02/13 13:46:31;;;;;;;1.73;1.63;;;10.90;89.40;;;;;;5029649;28;20980;-88
2024/02/13 13:48:59;;;;;;;1.77;1.70;;;11.00;88.70;;;;;;5031596;28;20423;-87
2024/02/13 13:51:26;;;;;;;2.80;1.40;;;10.90;88.70;;;;;;5032419;28;20455;-88
2024/02/13 13:53:51;;;;;;;1.53;1.43;;;10.70;88.40;;;;;;5031218;28;20451;-88
2024/02/13 13:56:17;;;;;;;39.60;1.63;;;10.60;88.30;;;;;;5033420;28;20429;-87
2024/02/13 13:58:42;;;;;;;1.40;1.37;;;10.80;88.20;;;;;;5041051;28;20214;-88
2024/02/13 14:01:08;;;;;;;1.53;1.43;;;11.10;87.40;;;;;;5057656;28;20255;-89
2024/02/13 14:03:34;;;;;;;1.23;1.13;;;11.10;86.90;;;;;;5053764;28;20259;-88
2024/02/13 14:05:59;;;;;;;1.43;1.33;;;10.90;87.00;;;;;;5035349;28;20498;-88
2024/02/13 14:08:25;;;;;;;1.33;1.20;;;10.90;86.90;;;;;;5032920;28;20621;-87
2024/02/13 14:10:52;;;;;;;1.27;1.17;;;10.90;86.90;;;;;;5032750;28;20702;-88
2024/02/13 14:13:18;;;;;;;1.10;1.00;;;11.00;87.50;;;;;;5032886;28;20427;-87
2024/02/13 14:15:44;;;;;;;1.07;0.97;;;11.30;87.40;;;;;;5032631;28;20437;-88
2024/02/13 14:18:11;;;;;;;3.37;2.20;;;11.50;86.80;;;;;;5023074;28;20420;-88
2024/02/13 14:20:38;;;;;;;0.90;0.90;;;11.60;86.00;;;;;;5028304;28;20608;-88
2024/02/13 14:23:05;;;;;;;2.50;2.30;;;11.80;85.80;;;;;;5032978;28;20506;-87
2024/02/13 14:25:31;;;;;;;1.80;1.43;;;11.60;85.50;;;;;;5033370;28;20423;-88
2024/02/13 14:27:57;;;;;;;1.50;1.43;;;12.10;86.70;;;;;;5033896;28;20427;-88
2024/02/13 14:30:24;;;;;;;1.37;1.27;;;11.90;85.10;;;;;;5033748;28;20442;-87
2024/02/13 14:32:51;;;;;;;1.47;1.37;;;11.80;85.60;;;;;;5033474;28;20184;-88
2024/02/13 14:35:19;;;;;;;1.00;0.90;;;11.90;85.70;;;;;;5033542;28;20426;-88
2024/02/13 14:37:47;;;;;;;2.23;1.33;;;11.70;85.60;;;;;;5033948;28;20478;-88
2024/02/13 14:40:14;;;;;;;3.63;1.33;;;12.10;86.00;;;;;;5033417;28;20423;-90
2024/02/13 14:42:40;;;;;;;1.50;1.33;;;12.40;85.40;;;;;;5024816;28;20447;-88
2024/02/13 14:45:06;;;;;;;1.13;1.03;;;12.50;84.70;;;;;;5024907;28;20928;-89
2024/02/13 14:47:32;;;;;;;4.10;2.07;;;12.70;84.10;;;;;;5033088;28;20515;-90
2024/02/13 14:49:58;;;;;;;1.20;1.10;;;12.90;83.70;;;;;;5026737;28;20423;-88
2024/02/13 14:52:25;;;;;;;2.10;1.47;;;12.60;82.80;;;;;;5032414;28;20196;-88
2024/02/13 14:54:51;;;;;;;1.10;1.00;;;12.70;84.00;;;;;;5032380;28;20427;-89
2024/02/13 14:57:17;;;;;;;1.67;1.57;;;11.90;84.70;;;;;;5033904;28;20476;-88
2024/02/13 14:59:44;;;;;;;2.67;1.23;;;11.30;85.90;;;;;;5031562;28;20435;-89
2024/02/13 15:02:14;;;;;;;1.60;1.37;;;11.20;87.30;;;;;;5033549;28;20785;-89
2024/02/13 15:04:41;;;;;;;1.10;1.00;;;11.30;87.40;;;;;;5032325;28;20415;-90
2024/02/13 15:07:06;;;;;;;3.60;1.40;;;11.70;87.20;;;;;;5034936;28;20552;-89
2024/02/13 15:09:32;;;;;;;1.70;1.33;;;12.50;86.20;;;;;;5033534;28;20427;-89
2024/02/13 15:11:58;;;;;;;2.80;0.90;;;12.70;84.90;;;;;;5034468;28;20184;-90
2024/02/13 15:14:27;;;;;;;1.10;1.00;;;12.10;84.60;;;;;;5033055;28;20422;-88
2024/02/13 15:16:54;;;;;;;1.30;1.20;;;11.90;85.60;;;;;;5033393;28;20365;-88
2024/02/13 15:19:20;;;;;;;0.90;0.80;;;12.40;85.80;;;;;;5032109;28;20468;-88
2024/02/13 15:21:48;;;;;;;1.63;1.53;;;12.60;84.40;;;;;;5031049;28;20443;-87
2024/02/13 15:24:16;;;;;;;1.33;1.23;;;12.20;84.90;;;;;;5031770;28;20416;-87
2024/02/13 15:26:42;;;;;;;2.13;1.77;;;12.20;84.90;;;;;;5023811;28;20685;-87
2024/02/13 15:29:09;;;;;;;3.37;1.53;;;12.60;84.30;;;;;;5031848;28;20523;-86
2024/02/13 15:31:35;;;;;;;2.40;1.47;;;13.00;83.70;;;;;;5031604;28;20442;-87
2024/02/13 15:34:00;;;;;;;3.17;1.93;;;12.80;83.10;;;;;;5033417;28;20434;-87
2024/02/13 15:36:32;;;;;;;2.47;2.27;;;12.50;83.90;;;;;;5032050;28;20188;-88
2024/02/13 15:47:12;;;;;;;3.90;3.23;;;10.00;90.80;;;;;;5036418;28;20465;-87
2024/02/13 15:49:43;;;;;;;1.97;1.87;;;9.70;92.00;;;;;;5036654;28;20419;-88
2024/02/13 15:52:14;;;;;;;9.33;1.70;;;9.50;92.40;;;;;;5036875;28;20848;-88
2024/02/13 15:54:41;;;;;;;1.73;1.03;;;9.30;93.30;;;;;;5033068;28;20438;-89
2024/02/13 15:57:12;;;;;;;2.67;2.50;;;9.30;93.80;;;;;;5033654;28;20426;-88
2024/02/13 15:59:40;;;;;;;8.07;3.90;;;9.30;94.10;;;;;;5030717;28;20431;-89
2024/02/13 16:02:06;;;;;;;1.03;0.93;;;9.20;94.40;;;;;;5030476;28;20475;-89
2024/02/13 16:04:32;;;;;;;10.83;2.30;;;9.00;95.00;;;;;;5030658;28;20439;-87
2024/02/13 16:06:58;;;;;;;2.13;1.83;;;8.80;95.60;;;;;;5030230;28;20232;-89
2024/02/13 16:09:27;;;;;;;8.77;2.10;;;8.60;96.10;;;;;;5029636;28;20976;-88
2024/02/13 16:11:52;;;;;;;5.27;2.63;;;8.50;96.60;;;;;;5012662;28;20200;-89
2024/02/13 16:14:18;;;;;;;3.00;2.80;;;8.40;97.00;;;;;;5029368;28;20514;-89
2024/02/13 16:16:45;;;;;;;4.20;1.23;;;8.20;97.30;;;;;;5030021;28;20246;-88
2024/02/13 16:19:11;;;;;;;1.37;1.27;;;8.10;97.30;;;;;;5026644;28;20191;-88
2024/02/13 16:21:36;;;;;;;1.10;1.00;;;8.10;97.30;;;;;;5030356;28;20443;-88
2024/02/13 16:24:02;;;;;;;1.83;1.73;;;8.00;97.30;;;;;;5030353;28;20192;-88
2024/02/13 16:26:30;;;;;;;1.63;1.20;;;7.90;97.30;;;;;;5028240;28;20200;-88
2024/02/13 16:28:56;;;;;;;1.60;1.50;;;7.90;97.30;;;;;;5032603;28;20510;-88
2024/02/13 16:31:23;;;;;;;10.13;1.93;;;7.80;97.30;;;;;;5032401;28;20482;-88
2024/02/13 16:33:50;;;;;;;2.50;2.20;;;7.70;97.30;;;;;;5032501;28;20449;-89
2024/02/13 16:36:16;;;;;;;1.10;1.00;;;7.60;97.30;;;;;;5030041;28;20423;-89
2024/02/13 16:38:42;;;;;;;3.60;1.40;;;7.60;97.30;;;;;;5025693;28;20442;-89
2024/02/13 16:41:14;;;;;;;4.90;2.40;;;7.50;97.30;;;;;;5031053;28;20448;-89
2024/02/13 16:43:41;;;;;;;1.10;1.10;;;7.50;97.30;;;;;;5030028;28;20423;-88
2024/02/13 16:46:12;;;;;;;3.23;2.30;;;7.40;97.30;;;;;;5031858;28;20459;-87
2024/02/13 16:48:38;;;;;;;1.50;1.40;;;7.30;97.30;;;;;;5030988;28;20423;-88
2024/02/13 16:51:05;;;;;;;1.20;1.10;;;7.30;97.30;;;;;;5029301;28;20533;-88
2024/02/13 16:53:31;;;;;;;1.83;1.73;;;7.20;97.30;;;;;;5030151;28;20180;-89
2024/02/13 16:55:56;;;;;;;2.73;1.90;;;7.20;97.30;;;;;;5024166;28;20431;-88
2024/02/13 16:58:24;;;;;;;1.20;1.20;;;7.20;97.30;;;;;;5029850;28;20204;-87
2024/02/13 17:00:51;;;;;;;1.30;1.20;;;7.10;97.30;;;;;;5028728;28;20202;-89
2024/02/13 17:03:17;;;;;;;1.67;1.30;;;7.10;97.30;;;;;;5030804;28;20427;-88
2024/02/13 17:05:43;;;;;;;1.77;1.67;;;7.10;97.30;;;;;;5012396;28;20479;-89
2024/02/13 17:08:09;;;;;;;2.33;1.33;;;7.00;97.30;;;;;;5016109;28;20184;-90
2024/02/13 17:10:35;;;;;;;3.13;2.37;;;7.00;97.30;;;;;;5025189;28;20180;-89
2024/02/13 17:13:03;;;;;;;1.67;1.30;;;7.00;97.30;;;;;;5025952;28;20485;-88
2024/02/13 17:15:28;;;;;;;2.10;1.10;;;6.80;97.30;;;;;;5022512;28;20184;-86
2024/02/13 17:17:55;;;;;;;1.77;1.50;;;6.60;97.30;;;;;;5022208;28;20436;-89
2024/02/13 17:20:20;;;;;;;3.17;2.33;;;6.40;97.30;;;;;;5041562;28;20234;-87
2024/02/13 17:22:47;;;;;;;1.57;1.47;;;6.30;97.30;;;;;;5035510;28;20431;-88
2024/02/13 17:25:13;;;;;;;3.47;3.27;;;6.30;97.30;;;;;;5031050;28;20295;-85
2024/02/13 17:27:42;;;;;;;1.23;1.13;;;6.30;97.30;;;;;;5028970;28;20903;-87
2024/02/13 17:30:12;;;;;;;1.20;1.10;;;6.40;97.30;;;;;;5043981;28;20192;-87
2024/02/13 17:32:39;;;;;;;1.17;1.07;;;6.30;97.30;;;;;;5028856;28;20427;-87
2024/02/13 17:35:05;;;;;;;1.93;1.70;;;6.30;97.30;;;;;;5045883;28;20753;-86
2024/02/13 17:37:31;;;;;;;11.13;2.60;;;6.30;97.30;;;;;;5028721;28;20427;-85
2024/02/13 17:39:57;;;;;;;5.63;2.97;;;6.40;97.30;;;;;;5028210;28;20419;-87
2024/02/13 17:42:23;;;;;;;3.73;3.13;;;6.40;97.30;;;;;;5016722;28;20959;-86
2024/02/13 17:44:49;;;;;;;3.57;3.37;;;6.30;97.30;;;;;;5018012;28;20400;-84
2024/02/13 17:47:15;;;;;;;4.87;4.57;;;6.30;97.30;;;;;;5020567;28;20477;-86
2024/02/13 17:49:40;;;;;;;1.90;1.80;;;6.30;97.30;;;;;;5019445;28;20726;-85
2024/02/13 17:52:08;;;;;;;2.53;2.00;;;6.30;97.30;;;;;;5016654;28;20204;-87
2024/02/13 17:54:34;;;;;;;1.30;1.20;;;6.30;97.30;;;;;;5016101;28;20192;-86
2024/02/13 17:57:01;;;;;;;2.93;1.87;;;6.20;97.30;;;;;;5018254;28;20439;-88
2024/02/13 17:59:27;;;;;;;1.67;1.60;;;6.20;97.30;;;;;;5016699;28;20188;-88
2024/02/13 18:01:53;;;;;;;2.43;1.80;;;6.10;97.30;;;;;;5014992;28;20621;-86
2024/02/13 18:04:21;;;;;;;1.20;1.10;;;6.10;97.30;;;;;;5016423;28;20258;-86
2024/02/13 18:06:47;;;;;;;3.20;3.00;;;6.10;97.30;;;;;;5021283;28;20459;-88